Time;durP1;ratioP1;P1;durP2;ratioP2;P2;SDS_P1;SDS_P2;PMS_P1;PMS_P2;Temp;Humidity;BMP_temperature;BMP_pressure;BME280_temperature;BME280_humidity;BME280_pressure;Samples;Min_cycle;Max_cycle;Signal;HPM_P1;HPM_P2
2022/03/02 05:22:35;;;;;;;12.75;7.32;;;;;;;-2.60;84.90;101000.44;5129810;27;20161;-72
2022/03/02 05:25:04;;;;;;;17.00;7.82;;;;;;;-2.55;85.42;101008.84;5129812;28;20035;-72
2022/03/02 05:27:30;;;;;;;15.50;8.73;;;;;;;-2.47;83.27;101006.75;5127919;28;20032;-72
2022/03/02 05:29:55;;;;;;;16.05;8.32;;;;;;;-2.48;85.01;101005.06;5130224;28;20035;-72
2022/03/02 05:32:21;;;;;;;13.02;7.95;;;;;;;-2.53;84.06;100999.22;5129325;28;20399;-72
2022/03/02 05:34:47;;;;;;;13.43;8.32;;;;;;;-2.48;83.87;101012.91;5128373;28;20035;-72
2022/03/02 05:37:12;;;;;;;14.15;8.05;;;;;;;-2.51;82.67;101007.81;5129474;27;20035;-72
2022/03/02 05:39:38;;;;;;;15.07;8.18;;;;;;;-2.54;82.19;101010.56;5129583;28;20031;-72
2022/03/02 05:42:04;;;;;;;12.48;7.82;;;;;;;-2.51;80.92;101012.19;5129314;28;20023;-72
2022/03/02 05:44:31;;;;;;;13.70;8.55;;;;;;;-2.53;81.52;101017.47;5128273;28;20449;-71
2022/03/02 05:46:57;;;;;;;13.88;8.02;;;;;;;-2.56;82.03;101015.00;5129397;28;20459;-72
2022/03/02 05:49:22;;;;;;;14.77;7.90;;;;;;;-2.61;81.78;101017.00;5129621;27;20047;-72
2022/03/02 05:51:48;;;;;;;13.85;7.75;;;;;;;-2.61;82.99;101027.44;5128965;28;20106;-72
2022/03/02 05:54:14;;;;;;;11.25;7.28;;;;;;;-2.60;83.41;101030.88;5130063;28;20031;-72
2022/03/02 05:56:40;;;;;;;14.30;8.00;;;;;;;-2.55;82.83;101034.94;5129425;27;20493;-72
2022/03/02 05:59:11;;;;;;;12.77;8.05;;;;;;;-2.62;83.99;101030.94;5127885;28;20027;-72
2022/03/02 06:01:38;;;;;;;14.38;8.23;;;;;;;-2.55;82.59;101037.56;5129227;28;20036;-72
2022/03/02 06:04:08;;;;;;;17.40;8.18;;;;;;;-2.57;82.68;101034.19;5127594;28;20340;-72
2022/03/02 06:06:35;;;;;;;13.00;7.82;;;;;;;-2.58;83.30;101029.03;5110711;28;20035;-72
2022/03/02 06:09:03;;;;;;;18.48;8.35;;;;;;;-2.57;84.70;101035.94;5128975;28;20034;-74
2022/03/02 06:11:29;;;;;;;11.80;8.02;;;;;;;-2.55;82.56;101027.13;5128588;28;20039;-74
2022/03/02 06:13:55;;;;;;;10.80;7.15;;;;;;;-2.56;84.22;101035.88;5127549;28;20035;-73
2022/03/02 06:16:21;;;;;;;11.30;7.40;;;;;;;-2.59;83.93;101038.63;5128779;28;20065;-73
2022/03/02 06:18:47;;;;;;;13.82;8.05;;;;;;;-2.57;84.56;101031.56;5127579;28;20047;-74
2022/03/02 06:21:16;;;;;;;15.48;8.20;;;;;;;-2.59;84.32;101032.56;5128541;28;20035;-72
2022/03/02 06:23:42;;;;;;;15.25;8.15;;;;;;;-2.62;84.71;101035.31;5128392;28;20092;-72
2022/03/02 06:26:08;;;;;;;13.48;8.23;;;;;;;-2.57;85.07;101033.34;5128349;28;20028;-73
2022/03/02 06:28:34;;;;;;;13.73;7.80;;;;;;;-2.55;83.93;101041.94;5128686;28;20039;-73
2022/03/02 06:31:00;;;;;;;15.70;7.93;;;;;;;-2.55;84.10;101037.56;5110459;28;20488;-73
2022/03/02 06:33:25;;;;;;;14.38;8.15;;;;;;;-2.54;85.01;101036.66;5117604;28;20041;-72
2022/03/02 06:35:51;;;;;;;12.25;7.30;;;;;;;-2.51;83.27;101039.13;5113615;28;20404;-72
2022/03/02 06:38:18;;;;;;;11.35;8.30;;;;;;;-2.43;82.87;101035.31;5114892;28;20036;-72
2022/03/02 06:41:12;;;;;;;17.17;8.50;;;;;;;-2.46;82.82;101028.47;5114585;28;20451;-73
2022/03/02 06:44:10;;;;;;;18.55;7.20;;;;;;;-2.37;81.79;101035.03;5113210;28;20061;-72
2022/03/02 06:46:57;;;;;;;15.65;7.32;;;;;;;-2.39;81.63;101037.72;5105451;28;20047;-72
2022/03/02 06:49:45;;;;;;;13.20;7.10;;;;;;;-2.33;82.58;101044.41;5115014;28;20134;-71
2022/03/02 06:52:12;;;;;;;14.63;7.72;;;;;;;-2.31;81.92;101047.78;5114279;27;20111;-71
2022/03/02 06:54:42;;;;;;;12.98;7.50;;;;;;;-2.32;81.76;101044.34;5114831;28;20040;-72
2022/03/02 06:57:10;;;;;;;14.00;7.68;;;;;;;-2.26;82.29;101040.59;5113025;28;20042;-71
2022/03/02 06:59:39;;;;;;;;;;;;;;;-2.17;83.96;101034.09;5114972;28;20119;-73
2022/03/02 07:02:06;;;;;;;15.93;7.22;;;;;;;-2.14;83.74;101050.47;5114139;28;19918;-73
2022/03/02 07:04:37;;;;;;;14.77;8.20;;;;;;;-2.14;81.14;101053.06;5113140;28;20054;-72
2022/03/02 07:07:03;;;;;;;18.15;7.75;;;;;;;-2.04;82.89;101040.41;5114297;28;20038;-73
2022/03/02 07:09:30;;;;;;;15.00;7.88;;;;;;;-1.95;83.09;101040.81;5113250;28;20528;-73
2022/03/02 07:11:56;;;;;;;12.25;7.65;;;;;;;-1.88;81.09;101035.31;5114578;28;20035;-72
2022/03/02 07:14:22;;;;;;;13.07;6.93;;;;;;;-1.77;80.56;101048.66;5114404;28;20050;-72
2022/03/02 07:16:48;;;;;;;16.98;8.45;;;;;;;-1.66;82.12;101047.22;5114254;28;20108;-72
2022/03/02 07:19:21;;;;;;;12.70;7.95;;;;;;;-1.55;80.85;101041.47;5096048;28;20486;-71
2022/03/02 07:21:47;;;;;;;11.75;6.95;;;;;;;-1.39;82.16;101044.16;5113799;28;20047;-72
2022/03/02 07:24:17;;;;;;;12.02;6.78;;;;;;;-1.25;82.18;101043.44;5113627;28;20066;-71
2022/03/02 07:26:51;;;;;;;14.15;7.60;;;;;;;-1.16;82.45;101045.63;5112239;28;20028;-73
2022/03/02 07:29:20;;;;;;;15.65;8.38;;;;;;;-1.09;81.34;101049.59;5113609;28;20039;-74
2022/03/02 07:31:46;;;;;;;12.75;8.18;;;;;;;-0.98;81.35;101042.06;5113227;28;20035;-74
2022/03/02 07:34:14;;;;;;;16.70;8.07;;;;;;;-0.91;79.08;101043.41;5113515;28;20609;-74
2022/03/02 07:36:41;;;;;;;15.30;8.82;;;;;;;-0.86;78.60;101045.78;5113565;28;20121;-74
2022/03/02 07:39:09;;;;;;;14.82;8.95;;;;;;;-0.82;77.57;101044.69;5113474;28;20044;-75
2022/03/02 07:41:35;;;;;;;15.05;7.97;;;;;;;-0.78;79.99;101045.34;5112251;28;20059;-73
2022/03/02 07:44:02;;;;;;;13.80;7.95;;;;;;;-0.65;77.60;101049.03;5112509;28;20027;-73
2022/03/02 07:46:29;;;;;;;14.80;7.88;;;;;;;-0.60;76.01;101052.22;5113266;28;20046;-73
2022/03/02 07:48:58;;;;;;;14.95;8.18;;;;;;;-0.55;77.25;101055.44;5113419;28;20089;-73
2022/03/02 07:51:25;;;;;;;18.88;8.57;;;;;;;-0.40;79.15;101052.00;5113228;28;20059;-72
2022/03/02 07:53:54;;;;;;;14.10;8.52;;;;;;;-0.33;76.52;101060.34;5113055;28;20036;-73
2022/03/02 07:56:20;;;;;;;14.63;8.43;;;;;;;-0.24;75.72;101053.78;5111308;28;20492;-72
2022/03/02 07:58:46;;;;;;;12.82;7.85;;;;;;;-0.25;77.55;101054.72;5113159;28;20031;-73
2022/03/02 08:01:18;;;;;;;15.93;8.45;;;;;;;-0.22;77.95;101057.16;5113049;28;20084;-75
2022/03/02 08:03:44;;;;;;;16.00;7.78;;;;;;;-0.13;76.42;101067.13;5113099;28;20453;-75
2022/03/02 08:06:11;;;;;;;15.27;8.57;;;;;;;-0.03;74.99;101068.31;5112789;28;20024;-75
2022/03/02 08:08:37;;;;;;;15.63;8.48;;;;;;;0.09;74.27;101056.31;5111688;28;20039;-73
2022/03/02 08:11:05;;;;;;;14.00;8.20;;;;;;;0.22;73.73;101052.06;5112868;28;20040;-73
2022/03/02 08:13:33;;;;;;;13.13;8.60;;;;;;;0.40;73.17;101044.94;5112809;28;20115;-73
2022/03/02 08:16:00;;;;;;;14.75;8.95;;;;;;;0.62;72.80;101042.72;5112698;28;20100;-73
2022/03/02 08:18:27;;;;;;;14.35;8.95;;;;;;;0.62;72.37;101047.13;5111488;28;20028;-72
2022/03/02 08:20:54;;;;;;;12.82;9.18;;;;;;;0.76;70.22;101041.91;5112953;28;20041;-71
2022/03/02 08:23:23;;;;;;;15.13;9.95;;;;;;;0.91;69.91;101048.84;5111006;28;20038;-72
2022/03/02 08:25:53;;;;;;;14.60;8.15;;;;;;;1.00;68.75;101036.97;5113085;28;20027;-72
2022/03/02 08:28:23;;;;;;;11.80;7.68;;;;;;;0.98;68.11;101028.38;5094938;28;20035;-71
2022/03/02 08:30:50;;;;;;;13.38;8.52;;;;;;;1.12;68.21;101025.75;5111235;28;20051;-71
2022/03/02 08:33:25;;;;;;;15.52;8.93;;;;;;;1.24;69.53;101035.50;5112056;28;20050;-71
2022/03/02 08:35:51;;;;;;;15.00;8.32;;;;;;;1.27;69.48;101029.19;5112393;28;20071;-72
2022/03/02 08:38:17;;;;;;;14.25;7.53;;;;;;;1.20;67.05;101023.47;5112441;28;20035;-71
2022/03/02 08:40:44;;;;;;;15.13;8.60;;;;;;;1.00;68.79;101021.25;5112318;28;20488;-71
2022/03/02 08:43:11;;;;;;;14.85;9.20;;;;;;;1.19;68.92;101027.06;5113077;28;20376;-70
2022/03/02 08:45:37;;;;;;;12.77;7.95;;;;;;;1.08;68.15;101024.22;5112219;28;20453;-70
2022/03/02 08:48:05;;;;;;;16.20;8.52;;;;;;;1.28;67.50;101023.00;5110874;28;20047;-71
2022/03/02 08:50:30;;;;;;;;;;;;;;;1.39;66.91;101023.19;5112570;28;20119;-71
2022/03/02 08:52:57;;;;;;;14.30;8.57;;;;;;;1.42;66.91;101022.16;5111714;28;20010;-70
2022/03/02 08:55:29;;;;;;;12.00;8.13;;;;;;;1.67;65.07;101018.81;5111772;28;20353;-71
2022/03/02 08:57:55;;;;;;;12.05;7.72;;;;;;;1.82;64.58;101020.47;5110743;28;20042;-71
2022/03/02 09:00:21;;;;;;;15.32;9.52;;;;;;;1.84;63.94;101029.13;5112109;28;20055;-70
2022/03/02 09:02:47;;;;;;;13.75;8.20;;;;;;;1.78;65.14;101035.59;5111986;28;20043;-70
2022/03/02 09:05:13;;;;;;;12.73;8.15;;;;;;;1.97;63.32;101035.25;5112072;28;20063;-70
2022/03/02 09:07:40;;;;;;;14.38;8.20;;;;;;;2.04;63.09;101035.72;5111857;28;20031;-71
2022/03/02 09:10:06;;;;;;;10.48;7.80;;;;;;;2.00;65.95;101034.22;5112136;28;20435;-71
2022/03/02 09:12:32;;;;;;;16.02;9.23;;;;;;;2.08;65.25;101024.03;5111847;28;20404;-70
2022/03/02 09:14:58;;;;;;;14.57;9.10;;;;;;;2.03;62.94;101036.66;5112364;28;20044;-71
2022/03/02 09:17:28;;;;;;;11.85;7.90;;;;;;;2.18;64.09;101036.50;5094142;28;20042;-72
2022/03/02 09:19:55;;;;;;;14.63;8.05;;;;;;;2.23;64.13;101033.56;5111822;28;20054;-72
2022/03/02 09:22:22;;;;;;;15.18;7.82;;;;;;;2.32;61.93;101026.84;5111452;28;20130;-72
2022/03/02 09:24:48;;;;;;;13.48;7.75;;;;;;;2.32;62.04;101022.44;5111782;28;20399;-70
2022/03/02 09:27:17;;;;;;;16.98;8.13;;;;;;;2.36;62.12;101026.56;5110492;28;20028;-71
2022/03/02 09:29:46;;;;;;;12.18;8.00;;;;;;;2.48;59.78;101021.41;5111901;28;20036;-71
2022/03/02 09:32:13;;;;;;;13.52;8.27;;;;;;;2.56;60.19;101024.38;5110160;28;20494;-71
2022/03/02 09:34:45;;;;;;;18.65;8.88;;;;;;;2.50;60.69;101016.91;5111880;28;20047;-71
2022/03/02 09:37:14;;;;;;;10.25;7.65;;;;;;;2.62;60.97;101014.28;5112242;28;20301;-71
2022/03/02 09:39:40;;;;;;;15.52;8.68;;;;;;;2.58;61.69;101020.69;5111433;28;20024;-71
2022/03/02 09:42:14;;;;;;;15.32;9.10;;;;;;;2.74;60.49;101020.53;5111772;28;20118;-72
2022/03/02 09:44:45;;;;;;;14.77;8.50;;;;;;;2.80;61.16;101009.53;5111835;28;20472;-71
2022/03/02 09:47:21;;;;;;;11.18;7.80;;;;;;;2.80;60.26;101008.72;5093622;28;20043;-70
2022/03/02 09:49:51;;;;;;;15.30;8.18;;;;;;;2.82;60.25;101002.41;5111630;28;20448;-70
2022/03/02 09:52:22;;;;;;;14.10;8.25;;;;;;;3.01;60.86;101011.69;5109895;28;20484;-71
2022/03/02 09:54:53;;;;;;;16.45;9.73;;;;;;;3.03;61.12;101005.34;5111816;28;20451;-70
2022/03/02 09:57:20;;;;;;;15.82;9.32;;;;;;;3.24;59.95;101008.28;5111359;28;20381;-71
2022/03/02 09:59:52;;;;;;;13.23;9.30;;;;;;;3.42;58.31;101009.63;5111536;28;20043;-71
2022/03/02 10:02:36;;;;;;;12.80;8.50;;;;;;;3.48;59.53;101008.34;5111533;28;20036;-71
2022/03/02 10:05:10;;;;;;;14.40;8.80;;;;;;;3.73;57.50;101010.91;5111431;28;20035;-72
2022/03/02 10:07:40;;;;;;;13.35;8.23;;;;;;;3.80;56.93;101006.03;5112560;28;20464;-72
2022/03/02 10:10:13;;;;;;;14.93;8.65;;;;;;;3.94;56.73;101000.59;5115781;28;20020;-71
2022/03/02 10:12:39;;;;;;;12.40;7.75;;;;;;;4.05;56.99;101005.09;5114975;28;20032;-71
2022/03/02 10:15:13;;;;;;;12.75;8.65;;;;;;;4.20;56.84;101001.31;5115193;28;20035;-71
2022/03/02 10:17:41;;;;;;;9.90;7.40;;;;;;;4.31;55.49;101000.53;5115328;28;20040;-71
2022/03/02 10:20:08;;;;;;;;;;;;;;;4.30;54.10;100999.69;5115575;28;20039;-71
2022/03/02 10:22:46;;;;;;;13.25;7.70;;;;;;;4.53;53.42;100991.81;5096406;28;19919;-71
2022/03/02 10:25:15;;;;;;;14.98;7.95;;;;;;;4.58;53.16;100985.25;5114925;28;20059;-72
2022/03/02 10:28:07;;;;;;;13.10;7.30;;;;;;;4.80;52.44;100994.97;5114971;28;20040;-72
2022/03/02 10:30:39;;;;;;;11.38;7.35;;;;;;;4.56;52.11;100988.94;5113443;28;20038;-72
2022/03/02 10:33:21;;;;;;;12.07;7.68;;;;;;;4.79;52.40;100998.59;5114916;28;20066;-72
2022/03/02 10:36:09;;;;;;;14.68;7.80;;;;;;;5.09;51.84;100999.84;5115189;28;20051;-72
2022/03/02 10:38:51;;;;;;;11.95;7.85;;;;;;;5.08;51.47;100988.41;5113781;28;20412;-72
2022/03/02 10:41:20;;;;;;;15.32;8.13;;;;;;;4.83;52.44;100993.94;5114869;28;20399;-72
2022/03/02 10:43:56;;;;;;;11.40;7.53;;;;;;;4.94;53.03;100995.72;5114467;28;20023;-72
2022/03/02 10:46:24;;;;;;;12.57;8.32;;;;;;;5.02;51.52;100995.97;5114536;28;20036;-71
2022/03/02 10:49:07;;;;;;;14.93;8.15;;;;;;;5.14;51.04;100993.19;5114558;28;20377;-71
2022/03/02 10:51:34;;;;;;;13.00;8.20;;;;;;;5.02;50.76;100994.19;5113138;28;20035;-71
2022/03/02 10:54:06;;;;;;;12.20;8.30;;;;;;;5.15;50.24;100994.03;5114460;28;20072;-71
2022/03/02 10:56:39;;;;;;;10.85;7.80;;;;;;;5.43;50.77;100990.09;5114686;28;20036;-70
2022/03/02 10:59:08;;;;;;;12.68;7.82;;;;;;;5.70;48.62;100982.56;5113419;28;20369;-71
2022/03/02 11:01:35;;;;;;;13.32;8.50;;;;;;;5.90;48.72;100982.75;5114017;28;20055;-71
2022/03/02 11:04:01;;;;;;;13.07;8.68;;;;;;;5.99;47.17;100982.03;5114074;27;20081;-71
2022/03/02 11:06:28;;;;;;;11.73;7.65;;;;;;;6.14;46.39;100974.66;5112303;28;20107;-71
2022/03/02 11:09:00;;;;;;;12.48;7.63;;;;;;;6.03;47.13;100978.19;5112653;28;20049;-71
2022/03/02 11:11:26;;;;;;;13.55;8.25;;;;;;;5.86;47.98;100974.22;5113742;28;20096;-71
2022/03/02 11:13:52;;;;;;;14.45;8.07;;;;;;;6.14;46.82;100970.22;5113943;28;20488;-72
2022/03/02 11:16:21;;;;;;;11.20;8.23;;;;;;;6.27;47.51;100966.53;5114111;28;20110;-73
2022/03/02 11:18:52;;;;;;;13.73;8.10;;;;;;;6.39;46.94;100962.84;5112555;28;20043;-71
2022/03/02 11:21:21;;;;;;;11.68;8.15;;;;;;;6.71;48.02;100963.59;5113874;28;20127;-72
2022/03/02 11:23:56;;;;;;;12.98;7.70;;;;;;;7.61;45.62;100957.53;5113910;28;20059;-73
2022/03/02 11:26:25;;;;;;;10.95;7.78;;;;;;;8.78;42.79;100959.19;5113742;28;20088;-74
2022/03/02 11:28:54;;;;;;;11.55;8.27;;;;;;;9.72;41.67;100951.06;5113854;28;20484;-74
2022/03/02 11:31:31;;;;;;;13.27;8.73;;;;;;;9.79;40.49;100938.81;5083431;22;20409;-70
2022/03/02 11:34:17;;;;;;;10.45;7.97;;;;;;;10.40;38.88;100938.03;5049043;28;20068;-71
2022/03/02 11:36:48;;;;;;;14.07;8.82;;;;;;;9.87;38.47;100933.56;5033306;28;20417;-69
2022/03/02 11:39:16;;;;;;;13.23;8.48;;;;;;;11.11;36.33;100939.63;5033159;28;20033;-70
2022/03/02 11:41:44;;;;;;;13.40;7.95;;;;;;;11.01;37.12;100926.41;5033052;28;20032;-71
2022/03/02 11:44:31;;;;;;;12.75;8.23;;;;;;;10.11;37.92;100921.47;5033433;28;20052;-70
2022/03/02 11:46:59;;;;;;;12.20;7.55;;;;;;;10.44;38.84;100928.75;5033142;28;20069;-71
2022/03/02 11:49:39;;;;;;;13.75;7.93;;;;;;;10.65;37.79;100919.56;5032898;28;20601;-74
2022/03/02 11:52:09;;;;;;;12.93;8.30;;;;;;;11.29;36.58;100920.88;5032654;28;20116;-71
2022/03/02 11:54:48;;;;;;;12.13;8.35;;;;;;;10.21;36.97;100919.56;5032938;28;20405;-70
2022/03/02 11:57:16;;;;;;;14.13;9.00;;;;;;;10.86;36.43;100920.84;5032877;28;20037;-70
2022/03/02 11:59:42;;;;;;;14.02;8.50;;;;;;;10.60;37.59;100920.03;5014769;28;20038;-70
2022/03/02 12:02:19;;;;;;;13.70;9.05;;;;;;;10.97;35.68;100917.06;5032214;28;20034;-71
2022/03/02 12:05:03;;;;;;;12.68;8.13;;;;;;;10.38;35.52;100918.72;5033012;28;20433;-71
2022/03/02 12:07:41;;;;;;;11.82;7.47;;;;;;;10.01;38.25;100911.75;5032615;28;20486;-71
2022/03/02 12:10:23;;;;;;;13.27;8.60;;;;;;;9.97;36.57;100905.03;5032625;28;20106;-71
2022/03/02 12:12:52;;;;;;;15.52;8.98;;;;;;;9.49;40.04;100911.56;4999290;28;20120;-71
2022/03/02 12:15:19;;;;;;;14.05;8.77;;;;;;;9.89;39.06;100901.47;5052282;28;20100;-72
2022/03/02 12:17:46;;;;;;;12.73;9.13;;;;;;;8.70;42.53;100898.81;5049410;28;20382;-70
2022/03/02 12:20:16;;;;;;;13.05;8.82;;;;;;;8.40;42.12;100905.19;5027249;28;20083;-70
2022/03/02 12:22:43;;;;;;;12.18;9.50;;;;;;;8.86;41.16;100902.66;5032043;28;20061;-70
2022/03/02 12:25:14;;;;;;;14.45;8.65;;;;;;;8.88;39.26;100898.06;5032375;28;20029;-71
2022/03/02 12:27:41;;;;;;;14.23;8.73;;;;;;;8.67;41.91;100898.25;5032230;28;20044;-72
2022/03/02 12:30:11;;;;;;;12.50;8.53;;;;;;;8.30;42.87;100890.25;5031636;28;20556;-70
2022/03/02 12:32:39;;;;;;;12.38;8.68;;;;;;;8.05;43.03;100879.25;5031703;28;20296;-71
2022/03/02 12:35:08;;;;;;;15.57;9.40;;;;;;;8.31;41.14;100878.66;5032141;28;20045;-71
2022/03/02 12:37:34;;;;;;;12.60;8.63;;;;;;;8.35;41.17;100874.72;5032074;28;20112;-72
2022/03/02 12:40:06;;;;;;;13.27;9.20;;;;;;;8.32;40.60;100867.88;5031888;28;20076;-71
2022/03/02 12:42:31;;;;;;;14.18;9.18;;;;;;;7.98;41.13;100870.19;5034495;28;20033;-70
2022/03/02 12:44:58;;;;;;;12.45;8.45;;;;;;;8.00;41.52;100870.88;5040520;28;20045;-71
2022/03/02 12:47:27;;;;;;;15.65;9.30;;;;;;;7.59;44.10;100864.03;5051188;28;20032;-71
2022/03/02 12:49:54;;;;;;;12.77;8.93;;;;;;;7.91;42.07;100866.41;5051639;28;20049;-71
2022/03/02 12:52:21;;;;;;;22.55;10.15;;;;;;;7.93;42.14;100866.28;5051307;28;20490;-71
2022/03/02 12:54:48;;;;;;;14.07;8.77;;;;;;;7.86;41.63;100866.81;5050256;28;20043;-71
2022/03/02 12:57:18;;;;;;;14.45;9.45;;;;;;;7.70;41.79;100855.97;5050988;28;20111;-71
2022/03/02 12:59:45;;;;;;;15.75;8.77;;;;;;;7.77;41.58;100862.38;5048374;28;20068;-72
2022/03/02 13:02:13;;;;;;;11.77;8.60;;;;;;;7.48;42.18;100849.09;5051250;28;20036;-71
2022/03/02 13:04:55;;;;;;;14.35;8.85;;;;;;;7.56;42.81;100851.06;5051432;28;20052;-71
2022/03/02 13:07:35;;;;;;;13.65;9.23;;;;;;;7.53;43.57;100846.88;5039939;28;20421;-70
2022/03/02 13:10:04;;;;;;;13.88;9.10;;;;;;;7.53;43.94;100851.34;5040986;28;20079;-72
2022/03/02 13:12:34;;;;;;;14.23;9.02;;;;;;;7.30;44.74;100827.75;5043390;28;20032;-72
2022/03/02 13:15:24;;;;;;;14.02;8.65;;;;;;;7.12;44.61;100847.94;5033148;28;20094;-72
2022/03/02 13:18:07;;;;;;;13.27;8.80;;;;;;;7.31;44.70;100844.50;5050199;28;20116;-71
2022/03/02 13:20:39;;;;;;;12.60;8.27;;;;;;;7.47;43.92;100844.78;5050170;28;20510;-71
2022/03/02 13:23:12;;;;;;;12.77;9.02;;;;;;;7.39;43.70;100844.63;5049232;28;20063;-71
2022/03/02 13:25:38;;;;;;;14.30;9.15;;;;;;;7.28;43.40;100842.94;5050119;28;20505;-71
2022/03/02 13:28:13;;;;;;;12.48;8.50;;;;;;;7.25;43.64;100840.59;5051267;28;20477;-72
2022/03/02 13:30:39;;;;;;;11.95;7.93;;;;;;;7.07;44.31;100842.22;5051274;28;20124;-72
2022/03/02 13:33:07;;;;;;;13.55;8.15;;;;;;;7.08;44.54;100835.94;5051141;28;20053;-71
2022/03/02 13:35:51;;;;;;;11.93;7.82;;;;;;;7.20;43.31;100839.31;5051332;28;20037;-71
2022/03/02 13:38:17;;;;;;;14.02;8.20;;;;;;;6.94;43.97;100838.97;5051320;28;20112;-69
2022/03/02 13:40:49;;;;;;;12.82;8.73;;;;;;;6.87;44.30;100837.84;5051014;28;20158;-71
2022/03/02 13:43:14;;;;;;;13.75;8.85;;;;;;;6.82;44.79;100835.59;5042713;28;20038;-71
2022/03/02 13:45:46;;;;;;;12.85;8.05;;;;;;;6.77;44.62;100840.44;5054582;28;20147;-70
2022/03/02 13:48:15;;;;;;;13.68;8.30;;;;;;;6.92;45.29;100833.81;5055165;28;20045;-71
2022/03/02 13:51:01;;;;;;;14.85;8.93;;;;;;;6.68;44.91;100843.91;5045832;28;20038;-70
2022/03/02 13:53:33;;;;;;;13.30;8.95;;;;;;;6.76;45.09;100842.25;5034764;28;20088;-71
2022/03/02 13:56:13;;;;;;;14.40;8.25;;;;;;;6.93;45.06;100834.66;5035165;28;20033;-71
2022/03/02 13:58:43;;;;;;;13.85;8.38;;;;;;;6.89;44.79;100827.94;5035153;28;20121;-70
2022/03/02 14:01:11;;;;;;;12.43;8.55;;;;;;;6.74;46.21;100830.13;5035021;28;20490;-70
2022/03/02 14:03:43;;;;;;;13.65;8.73;;;;;;;6.71;46.77;100831.22;5017044;28;20418;-70
2022/03/02 14:06:17;;;;;;;13.60;9.27;;;;;;;6.68;46.48;100828.84;5035036;28;20054;-72
2022/03/02 14:08:50;;;;;;;11.70;8.43;;;;;;;6.73;45.58;100824.00;5034978;28;20127;-72
2022/03/02 14:11:39;;;;;;;14.02;8.95;;;;;;;6.66;46.22;100816.75;5034729;28;20079;-72
2022/03/02 14:14:08;;;;;;;12.57;8.90;;;;;;;6.93;45.01;100814.31;5034658;28;20052;-72
2022/03/02 14:16:35;;;;;;;13.30;8.88;;;;;;;7.02;44.09;100810.00;5034544;28;20457;-72
2022/03/02 14:19:11;;;;;;;11.27;8.40;;;;;;;7.05;44.79;100813.22;5034790;28;20041;-72
2022/03/02 14:21:38;;;;;;;16.25;9.00;;;;;;;6.92;45.91;100815.28;5016841;28;20037;-72
2022/03/02 14:24:17;;;;;;;14.43;9.10;;;;;;;6.89;47.37;100815.53;5034487;28;20037;-71
2022/03/02 14:27:00;;;;;;;13.70;8.45;;;;;;;6.97;46.58;100815.69;5034468;28;20083;-72
2022/03/02 14:29:27;;;;;;;13.45;8.95;;;;;;;7.09;44.73;100813.75;5034140;28;20041;-72
2022/03/02 14:31:54;;;;;;;14.68;9.77;;;;;;;6.79;46.97;100820.81;5034130;28;20028;-71
2022/03/02 14:34:20;;;;;;;16.40;8.70;;;;;;;6.93;46.35;100809.00;5016792;28;20042;-73
2022/03/02 14:36:45;;;;;;;15.63;9.13;;;;;;;6.94;48.45;100807.19;5034317;28;20033;-70
2022/03/02 14:39:11;;;;;;;12.20;8.65;;;;;;;6.94;48.01;100797.44;5034515;28;20132;-73
2022/03/02 14:41:36;;;;;;;15.23;8.45;;;;;;;7.14;47.04;100805.41;5034109;28;20121;-72
2022/03/02 14:44:13;;;;;;;15.45;9.25;;;;;;;7.20;46.00;100803.06;5016520;28;20041;-72
2022/03/02 14:46:39;;;;;;;14.27;8.63;;;;;;;7.25;44.82;100800.84;5034387;28;20033;-72
2022/03/02 14:49:06;;;;;;;14.90;9.25;;;;;;;7.34;45.36;100802.63;5034221;28;20044;-72
2022/03/02 14:51:31;;;;;;;15.13;8.98;;;;;;;7.25;46.58;100802.66;5033832;28;20064;-71
2022/03/02 14:53:57;;;;;;;14.38;9.90;;;;;;;7.31;46.28;100787.03;5016171;28;20124;-72
2022/03/02 14:56:26;;;;;;;14.25;9.02;;;;;;;7.35;45.45;100792.88;5000051;28;20051;-72
2022/03/02 14:58:52;;;;;;;13.82;9.63;;;;;;;7.30;46.15;100785.34;5034094;28;20049;-71
2022/03/02 15:01:21;;;;;;;13.40;9.35;;;;;;;7.34;46.34;100791.19;5033806;28;20101;-72
2022/03/02 15:03:50;;;;;;;14.50;8.77;;;;;;;7.09;47.38;100792.56;5033521;28;20021;-71
2022/03/02 15:06:20;;;;;;;13.18;8.93;;;;;;;7.13;48.77;100790.50;5033651;28;20063;-72
2022/03/02 15:08:51;;;;;;;13.95;8.43;;;;;;;7.04;47.62;100797.44;5033805;28;20029;-71
2022/03/02 15:11:33;;;;;;;11.65;9.48;;;;;;;7.20;47.35;100783.66;5033813;28;20038;-71
2022/03/02 15:16:57;;;;;;;13.40;9.15;;;;;;;7.34;47.68;100770.00;5015824;28;20037;-71
2022/03/02 15:19:44;;;;;;;12.90;9.18;;;;;;;7.45;46.26;100772.53;5015929;28;20041;-71
2022/03/02 15:22:12;;;;;;;17.52;8.90;;;;;;;7.28;47.19;100767.91;5033416;28;20041;-72
2022/03/02 15:24:40;;;;;;;16.45;9.73;;;;;;;7.42;47.81;100764.81;5015892;28;20045;-72
2022/03/02 15:27:12;;;;;;;12.30;8.60;;;;;;;7.43;47.94;100779.75;5033726;28;20034;-72
2022/03/02 15:29:38;;;;;;;14.93;9.63;;;;;;;7.42;47.61;100764.81;5033657;28;20033;-72
2022/03/02 15:32:11;;;;;;;13.63;8.98;;;;;;;7.44;47.45;100765.53;5033450;28;20034;-72
2022/03/02 15:34:49;;;;;;;15.93;9.40;;;;;;;7.41;46.77;100765.81;5015997;28;20440;-72
2022/03/02 15:37:19;;;;;;;12.45;8.93;;;;;;;7.37;47.10;100768.88;5033257;28;20513;-73
2022/03/02 15:39:54;;;;;;;13.93;9.30;;;;;;;7.28;47.50;100768.75;5015517;28;20075;-70
2022/03/02 15:42:31;;;;;;;13.07;9.00;;;;;;;7.39;47.84;100765.13;5032845;28;20124;-72
2022/03/02 15:45:16;;;;;;;12.85;8.80;;;;;;;7.47;47.77;100765.25;5033022;28;20046;-73
2022/03/02 15:47:55;;;;;;;13.70;9.30;;;;;;;7.56;46.81;100760.91;5032774;28;20033;-72
2022/03/02 15:50:25;;;;;;;14.32;9.18;;;;;;;7.54;46.67;100761.06;5032668;28;20447;-70
2022/03/02 15:53:02;;;;;;;12.80;9.63;;;;;;;7.34;47.41;100767.34;5032608;28;20022;-72
2022/03/02 15:55:28;;;;;;;;;;;;;;;7.40;47.79;100761.50;5033168;28;20084;-73
2022/03/02 15:57:54;;;;;;;12.00;8.15;;;;;;;7.42;47.24;100769.28;5032834;28;19913;-70
2022/03/02 16:00:24;;;;;;;12.75;7.75;;;;;;;7.41;46.78;100773.75;5032808;28;20408;-72
2022/03/02 16:02:51;;;;;;;10.65;7.90;;;;;;;7.20;48.32;100765.97;5032480;28;20030;-71
2022/03/02 16:05:19;;;;;;;13.43;8.25;;;;;;;7.30;47.37;100758.00;5031688;28;20041;-71
2022/03/02 16:08:19;;;;;;;12.20;8.88;;;;;;;7.31;46.81;100757.88;5032431;28;20037;-72
2022/03/02 16:10:48;;;;;;;11.77;8.00;;;;;;;7.17;47.20;100757.44;5032233;28;20040;-72
2022/03/02 16:13:26;;;;;;;11.02;8.25;;;;;;;7.14;47.72;100757.72;5014471;28;20061;-73
2022/03/02 16:15:55;;;;;;;;;;;;;;;7.13;47.69;100756.06;5032975;28;20037;-71
2022/03/02 16:18:32;;;;;;;10.55;7.85;;;;;;;7.16;47.58;100756.59;5032536;28;19975;-71
2022/03/02 16:21:14;;;;;;;10.30;7.20;;;;;;;7.17;47.31;100758.31;5032198;28;20049;-72
2022/03/02 16:23:45;;;;;;;12.38;8.07;;;;;;;7.19;47.18;100752.84;5032108;28;20037;-71
2022/03/02 16:26:12;;;;;;;10.77;7.28;;;;;;;7.06;47.87;100750.47;5034602;28;20522;-71
2022/03/02 16:28:41;;;;;;;11.02;7.95;;;;;;;6.91;48.95;100751.81;5041390;28;20382;-73
2022/03/02 16:31:10;;;;;;;13.73;7.82;;;;;;;6.94;48.42;100751.56;5051308;28;20115;-73
2022/03/02 16:33:38;;;;;;;12.43;7.25;;;;;;;6.93;47.86;100753.38;5051706;28;20061;-74
2022/03/02 16:36:04;;;;;;;10.43;7.55;;;;;;;6.72;48.71;100750.00;5052017;28;20037;-71
2022/03/02 16:38:30;;;;;;;14.85;8.20;;;;;;;6.59;51.03;100752.06;5051915;28;20486;-71
2022/03/02 16:40:55;;;;;;;11.48;7.70;;;;;;;6.50;50.47;100745.75;5051864;28;20033;-71
2022/03/02 16:43:22;;;;;;;13.95;7.97;;;;;;;6.47;49.81;100743.38;5051424;28;20037;-72
2022/03/02 16:45:48;;;;;;;9.77;7.50;;;;;;;6.42;49.47;100746.44;5051718;28;20029;-70
2022/03/02 16:48:14;;;;;;;11.20;7.75;;;;;;;6.41;50.44;100746.56;5051538;28;20045;-72
2022/03/02 16:50:40;;;;;;;13.15;8.18;;;;;;;6.13;50.41;100748.97;5051436;28;20099;-72
2022/03/02 16:53:07;;;;;;;14.27;8.27;;;;;;;6.11;50.66;100753.53;5050467;28;20044;-71
2022/03/02 16:55:33;;;;;;;10.75;7.95;;;;;;;5.99;51.45;100757.22;5031222;28;20119;-73
2022/03/02 16:58:00;;;;;;;11.00;7.63;;;;;;;5.96;50.67;100752.22;5030909;28;20033;-71
2022/03/02 17:00:32;;;;;;;13.65;8.32;;;;;;;5.92;50.67;100753.44;5045570;28;20025;-71
2022/03/02 17:03:00;;;;;;;10.50;7.68;;;;;;;5.77;51.75;100767.94;5051202;28;20458;-72